Time;durP1;ratioP1;P1;durP2;ratioP2;P2;SDS_P1;SDS_P2;PMS_P1;PMS_P2;Temp;Humidity;BMP_temperature;BMP_pressure;BME280_temperature;BME280_humidity;BME280_pressure;Samples;Min_cycle;Max_cycle;Signal;HPM_P1;HPM_P2
2022/06/08 00:02:12;;;;;;;8.75;8.55;;;16.60;99.90;;;;;;5081378;28;20232;-90
2022/06/08 00:05:07;;;;;;;9.50;9.20;;;16.60;99.90;;;;;;5083568;28;20233;-90
2022/06/08 00:08:32;;;;;;;;;;;;;;;;;;;;;
2022/06/08 00:11:06;;;;;;;9.50;9.20;;;16.60;99.90;;;;;;5080700;28;20218;-90
2022/06/08 00:13:47;;;;;;;9.57;9.27;;;16.60;99.90;;;;;;5094856;28;20281;-89
2022/06/08 00:16:26;;;;;;;9.60;9.30;;;16.60;99.90;;;;;;5089793;28;20234;-90
2022/06/08 00:19:06;;;;;;;9.70;9.40;;;16.70;99.90;;;;;;5090910;28;20218;-90
2022/06/08 00:21:58;;;;;;;9.57;9.27;;;16.70;99.90;;;;;;5086777;28;20218;-90
2022/06/08 00:27:41;;;;;;;9.05;8.82;;;16.60;99.90;;;;;;5080540;28;20230;-91
2022/06/08 00:37:25;;;;;;;;;;;;;;;;;;;;;
2022/06/08 00:40:03;;;;;;;8.98;8.77;;;16.60;99.90;;;;;;5081459;28;20229;-90
2022/06/08 00:45:36;;;;;;;9.20;8.90;;;16.60;99.90;;;;;;5080709;28;20232;-90
2022/06/08 00:57:46;;;;;;;9.50;9.20;;;16.50;99.90;;;;;;5079954;28;20217;-90
2022/06/08 01:00:46;;;;;;;9.40;9.10;;;16.40;99.90;;;;;;5085272;28;20241;-88
2022/06/08 01:03:46;;;;;;;9.55;9.25;;;16.30;99.90;;;;;;5092401;28;20261;-91
2022/06/08 01:06:46;;;;;;;9.32;9.02;;;16.20;99.90;;;;;;5082134;28;20253;-90
2022/06/08 01:12:27;;;;;;;8.98;8.77;;;16.00;99.90;;;;;;5080125;28;20273;-90
2022/06/08 01:15:05;;;;;;;9.48;9.18;;;16.00;99.90;;;;;;5081301;28;20226;-91
2022/06/08 01:20:42;;;;;;;9.27;8.98;;;15.90;99.90;;;;;;5077967;28;20226;-90
2022/06/08 01:26:27;;;;;;;9.50;9.20;;;15.80;99.90;;;;;;5080234;28;20249;-90
2022/06/08 01:32:39;;;;;;;10.10;9.80;;;15.60;99.90;;;;;;5083920;28;20238;-90
2022/06/08 01:39:04;;;;;;;9.85;9.55;;;15.50;99.90;;;;;;5082930;28;20328;-90
2022/06/08 01:42:15;;;;;;;9.90;9.60;;;15.40;99.90;;;;;;5082204;28;20217;-90
2022/06/08 01:45:40;;;;;;;9.90;9.60;;;15.40;99.90;;;;;;5079711;28;20288;-90
2022/06/08 01:48:47;;;;;;;9.65;9.35;;;15.40;99.90;;;;;;5081402;28;20241;-90
2022/06/08 01:51:42;;;;;;;9.65;9.35;;;15.40;99.90;;;;;;5080884;28;20226;-90
2022/06/08 02:00:47;;;;;;;9.85;9.55;;;15.30;99.90;;;;;;5078390;28;20245;-90
2022/06/08 02:03:25;;;;;;;9.70;9.40;;;15.30;99.90;;;;;;5078239;28;20230;-90
2022/06/08 02:06:20;;;;;;;9.63;9.32;;;15.30;99.90;;;;;;5079749;28;20292;-89
2022/06/08 02:09:05;;;;;;;9.75;9.45;;;15.20;99.90;;;;;;5079201;28;20261;-90
2022/06/08 02:12:08;;;;;;;9.68;9.38;;;15.20;99.90;;;;;;5081016;28;20303;-90
2022/06/08 02:14:52;;;;;;;9.80;9.50;;;15.20;99.90;;;;;;5080032;28;20233;-89
2022/06/08 02:17:50;;;;;;;9.60;9.30;;;15.10;99.90;;;;;;5081576;28;20310;-90
2022/06/08 02:20:32;;;;;;;9.73;9.43;;;15.00;99.90;;;;;;5080350;28;20293;-90
2022/06/08 02:23:24;;;;;;;9.65;9.35;;;14.90;99.90;;;;;;5079183;28;20265;-89
2022/06/08 02:26:13;;;;;;;9.95;9.65;;;14.80;99.90;;;;;;5079627;28;20409;-90
2022/06/08 02:28:56;;;;;;;9.90;9.60;;;14.80;99.90;;;;;;5079216;28;20222;-90
2022/06/08 02:31:42;;;;;;;9.88;9.57;;;14.70;99.90;;;;;;5078146;28;20238;-90
2022/06/08 02:34:29;;;;;;;9.80;9.50;;;14.60;99.90;;;;;;5079555;28;20325;-90
2022/06/08 02:37:22;;;;;;;9.90;9.60;;;14.60;99.90;;;;;;5080555;28;20226;-90
2022/06/08 02:40:23;;;;;;;9.80;9.50;;;14.60;99.90;;;;;;5081856;28;20284;-90
2022/06/08 02:43:17;;;;;;;9.75;9.45;;;14.50;99.90;;;;;;5084534;28;20281;-90
2022/06/08 02:55:02;;;;;;;10.90;10.60;;;14.40;99.90;;;;;;5095827;28;20214;-90
2022/06/08 02:57:40;;;;;;;10.60;10.30;;;14.30;99.90;;;;;;5102155;28;20230;-89
2022/06/08 03:00:17;;;;;;;10.70;10.40;;;14.20;99.90;;;;;;5101974;28;20217;-89
2022/06/08 03:03:08;;;;;;;10.20;9.90;;;14.20;99.90;;;;;;5082121;28;20225;-90
2022/06/08 03:05:44;;;;;;;10.40;10.10;;;14.10;99.90;;;;;;5082813;28;20240;-90
2022/06/08 03:08:20;;;;;;;10.60;10.30;;;14.10;99.90;;;;;;5082310;28;20288;-90
2022/06/08 03:10:50;;;;;;;10.63;10.33;;;14.00;99.90;;;;;;5088855;28;20277;-90
2022/06/08 03:13:31;;;;;;;10.63;10.32;;;14.00;99.90;;;;;;5087757;28;20222;-90
2022/06/08 03:16:06;;;;;;;10.60;10.30;;;14.00;99.90;;;;;;5081438;28;20256;-90
2022/06/08 03:18:39;;;;;;;10.70;10.40;;;14.00;99.90;;;;;;5081581;28;20317;-90
2022/06/08 03:23:52;;;;;;;10.60;10.30;;;13.90;99.90;;;;;;5085972;28;20210;-89
2022/06/08 03:26:22;;;;;;;10.57;10.27;;;13.90;99.90;;;;;;5084753;28;20318;-89
2022/06/08 03:29:00;;;;;;;10.60;10.30;;;13.90;99.90;;;;;;5087920;28;20233;-89
2022/06/08 03:31:33;;;;;;;10.47;10.17;;;13.80;99.90;;;;;;5081912;28;20241;-89
2022/06/08 03:34:08;;;;;;;10.53;10.23;;;13.80;99.90;;;;;;5080839;28;20312;-89
2022/06/08 03:36:46;;;;;;;10.70;10.40;;;13.80;99.90;;;;;;5080593;28;20229;-89
2022/06/08 03:42:04;;;;;;;10.20;9.90;;;13.80;99.90;;;;;;5080225;28;20234;-89
2022/06/08 03:44:36;;;;;;;10.20;9.90;;;13.80;99.90;;;;;;5081226;28;20250;-88
2022/06/08 03:47:09;;;;;;;10.27;9.97;;;13.80;99.90;;;;;;5092943;28;20222;-87
2022/06/08 03:50:06;;;;;;;10.40;10.10;;;13.80;99.90;;;;;;5098490;28;20245;-89
2022/06/08 03:55:24;;;;;;;10.13;9.83;;;13.80;99.90;;;;;;5082182;28;20226;-89
2022/06/08 04:00:39;;;;;;;10.10;9.80;;;13.90;99.90;;;;;;5081561;28;20264;-89
2022/06/08 04:06:03;;;;;;;10.43;10.13;;;14.00;99.90;;;;;;5082119;28;20234;-89
2022/06/08 04:11:22;;;;;;;10.57;10.27;;;14.10;99.90;;;;;;5085942;28;20256;-88
2022/06/08 04:13:52;;;;;;;10.30;10.00;;;14.00;99.90;;;;;;5096386;28;20237;-89
2022/06/08 04:16:40;;;;;;;10.40;10.10;;;14.00;99.90;;;;;;5090688;28;20222;-88
2022/06/08 04:19:44;;;;;;;10.20;9.90;;;14.00;99.90;;;;;;5095969;28;20230;-93
2022/06/08 04:25:36;;;;;;;10.30;10.00;;;14.00;99.90;;;;;;5437573;23;20234;-94
2022/06/08 04:50:19;;;;;;;10.30;10.00;;;14.40;99.90;;;;;;4960852;28;20246;-91
2022/06/08 04:53:07;;;;;;;10.10;9.80;;;14.50;99.90;;;;;;4961325;28;20258;-91
2022/06/08 04:55:50;;;;;;;10.60;10.30;;;14.60;99.90;;;;;;4963028;28;20230;-91
2022/06/08 04:58:50;;;;;;;10.52;10.23;;;14.60;99.90;;;;;;4962810;28;20236;-91
2022/06/08 05:01:20;;;;;;;10.00;9.70;;;14.60;99.90;;;;;;4980691;23;20230;-83
2022/06/08 05:03:48;;;;;;;10.07;9.77;;;14.60;99.90;;;;;;4969354;28;20261;-83
2022/06/08 05:06:30;;;;;;;10.27;9.98;;;14.70;99.90;;;;;;4968964;28;20249;-83
2022/06/08 05:08:57;;;;;;;10.30;10.00;;;14.70;99.90;;;;;;4969568;28;20233;-82
2022/06/08 05:11:26;;;;;;;10.40;10.10;;;14.70;99.90;;;;;;4971804;28;20302;-83
2022/06/08 05:13:55;;;;;;;10.35;10.05;;;14.80;99.90;;;;;;4970841;28;20230;-82
2022/06/08 05:16:24;;;;;;;10.30;10.00;;;14.80;99.90;;;;;;4969720;28;20333;-83
2022/06/08 05:18:54;;;;;;;10.32;10.02;;;14.80;99.90;;;;;;4969050;28;20265;-83
2022/06/08 05:21:36;;;;;;;10.40;10.10;;;14.90;99.90;;;;;;4968655;28;20240;-83
2022/06/08 05:24:04;;;;;;;10.20;9.90;;;14.90;99.90;;;;;;4965848;28;20249;-83
2022/06/08 05:26:32;;;;;;;10.48;10.18;;;15.00;99.90;;;;;;4966393;28;20298;-83
2022/06/08 05:29:01;;;;;;;10.48;10.18;;;15.10;99.90;;;;;;4970792;28;20329;-83
2022/06/08 05:31:31;;;;;;;9.93;9.63;;;15.20;99.90;;;;;;4970441;28;20318;-83
2022/06/08 05:34:00;;;;;;;10.07;9.77;;;15.30;99.90;;;;;;4973536;28;20230;-83
2022/06/08 05:36:31;;;;;;;9.95;9.65;;;15.40;99.90;;;;;;4977118;28;20235;-83
2022/06/08 05:38:59;;;;;;;9.85;9.55;;;15.50;99.90;;;;;;4977830;28;20246;-82
2022/06/08 05:41:28;;;;;;;9.90;9.60;;;15.50;99.90;;;;;;4978333;28;20218;-83
2022/06/08 05:43:57;;;;;;;10.60;10.30;;;15.60;99.90;;;;;;4977922;28;20294;-83
2022/06/08 05:46:27;;;;;;;10.02;9.73;;;15.80;99.90;;;;;;4977936;28;20218;-82
2022/06/08 05:48:56;;;;;;;10.10;9.80;;;15.90;99.90;;;;;;4980169;28;20281;-81
2022/06/08 05:51:25;;;;;;;10.00;9.70;;;16.00;99.90;;;;;;4975836;28;20265;-83
2022/06/08 05:53:58;;;;;;;10.52;10.23;;;16.20;99.90;;;;;;4974248;28;20238;-82
2022/06/08 05:56:25;;;;;;;10.40;10.10;;;16.30;99.90;;;;;;4973842;28;20245;-83
2022/06/08 05:58:55;;;;;;;10.50;10.20;;;16.50;99.90;;;;;;4974684;28;20234;-82
2022/06/08 06:01:24;;;;;;;10.60;10.30;;;16.60;99.90;;;;;;4972040;28;20281;-83
2022/06/08 06:03:53;;;;;;;10.52;10.23;;;16.80;99.90;;;;;;4971582;28;20248;-83
2022/06/08 06:06:22;;;;;;;10.40;10.10;;;16.90;99.90;;;;;;4969774;28;20260;-82
2022/06/08 06:08:52;;;;;;;10.52;10.23;;;17.00;99.90;;;;;;4969403;28;20251;-83
2022/06/08 06:11:30;;;;;;;10.70;10.40;;;17.20;99.90;;;;;;4971727;28;20741;-83
2022/06/08 06:13:59;;;;;;;10.05;9.75;;;17.40;99.90;;;;;;4972543;28;20241;-83
2022/06/08 06:16:29;;;;;;;10.35;10.05;;;17.50;99.90;;;;;;4970645;28;20234;-84
2022/06/08 06:18:59;;;;;;;10.50;10.20;;;17.60;99.90;;;;;;4971177;28;20293;-83
2022/06/08 06:21:28;;;;;;;10.23;9.93;;;17.70;99.90;;;;;;4971049;28;20266;-83
2022/06/08 06:23:57;;;;;;;10.15;9.85;;;17.90;99.90;;;;;;4970722;28;20276;-82
2022/06/08 06:29:13;;;;;;;10.13;9.82;;;18.00;99.90;;;;;;4972081;28;20222;-83
2022/06/08 06:34:32;;;;;;;10.70;10.40;;;18.40;99.90;;;;;;4970495;28;20241;-83
2022/06/08 06:37:02;;;;;;;10.80;10.50;;;18.50;99.90;;;;;;4973596;28;20245;-83
2022/06/08 06:39:31;;;;;;;10.15;9.85;;;18.50;99.90;;;;;;4973247;28;20325;-82
2022/06/08 06:42:03;;;;;;;10.20;9.90;;;18.50;99.90;;;;;;4972308;28;20241;-84
2022/06/08 06:44:30;;;;;;;10.07;9.77;;;18.60;99.90;;;;;;4972371;28;20230;-83
2022/06/08 06:47:00;;;;;;;9.98;9.68;;;18.70;99.90;;;;;;4971322;28;20240;-83
2022/06/08 06:49:29;;;;;;;10.32;10.02;;;18.70;99.90;;;;;;4970370;28;20242;-83
2022/06/08 06:51:58;;;;;;;10.10;9.80;;;18.90;99.90;;;;;;4969152;28;20238;-84
2022/06/08 06:54:27;;;;;;;10.30;10.00;;;18.90;99.90;;;;;;4970050;28;20238;-83
2022/06/08 06:56:57;;;;;;;10.50;10.20;;;19.00;99.90;;;;;;4970571;28;20245;-83
2022/06/08 06:59:29;;;;;;;10.50;10.20;;;18.90;99.90;;;;;;4970612;28;20226;-83
2022/06/08 07:01:57;;;;;;;10.40;10.10;;;19.00;99.90;;;;;;4971005;28;20226;-84
2022/06/08 07:04:25;;;;;;;10.70;10.40;;;19.00;99.90;;;;;;4970725;28;20253;-84
2022/06/08 07:06:55;;;;;;;10.30;10.00;;;19.20;99.90;;;;;;4970520;28;20230;-83
2022/06/08 07:09:24;;;;;;;10.40;10.10;;;19.30;99.90;;;;;;4969652;28;20286;-83
2022/06/08 07:11:53;;;;;;;10.40;10.10;;;19.40;99.90;;;;;;4970703;28;20256;-84
2022/06/08 07:14:24;;;;;;;10.50;10.20;;;19.50;99.90;;;;;;4970331;28;20229;-84
2022/06/08 07:16:55;;;;;;;10.23;9.93;;;19.50;99.90;;;;;;4969505;28;20301;-83
2022/06/08 07:19:23;;;;;;;10.00;9.70;;;19.60;99.90;;;;;;4970341;28;20223;-84
2022/06/08 07:21:51;;;;;;;10.10;9.80;;;19.60;99.90;;;;;;4968754;28;20294;-84
2022/06/08 07:24:23;;;;;;;9.80;9.50;;;19.60;99.90;;;;;;4969187;28;20243;-84
2022/06/08 07:26:50;;;;;;;9.40;9.10;;;19.60;99.90;;;;;;4970884;28;20262;-84
2022/06/08 07:29:20;;;;;;;10.10;9.80;;;19.60;99.90;;;;;;4969789;28;20250;-84
2022/06/08 07:31:50;;;;;;;9.50;9.20;;;19.60;99.90;;;;;;4970205;28;20277;-84
2022/06/08 07:34:21;;;;;;;9.43;9.13;;;19.60;99.90;;;;;;4970496;28;20257;-84
2022/06/08 07:36:49;;;;;;;9.52;9.23;;;19.70;99.90;;;;;;4969042;28;20329;-84
2022/06/08 07:39:19;;;;;;;9.70;9.40;;;19.80;99.90;;;;;;4968427;28;20261;-84
2022/06/08 07:41:48;;;;;;;9.90;9.60;;;19.90;99.90;;;;;;4968416;28;20226;-84
2022/06/08 07:44:16;;;;;;;10.45;10.15;;;19.90;99.90;;;;;;4968639;28;20241;-84
2022/06/08 07:46:45;;;;;;;10.77;10.48;;;19.80;99.90;;;;;;4969029;28;20240;-84
2022/06/08 07:54:49;;;;;;;10.55;10.25;;;20.00;99.90;;;;;;4969542;28;20320;-85
2022/06/08 07:57:20;;;;;;;10.82;10.52;;;20.20;99.90;;;;;;4969554;28;20258;-84
2022/06/08 07:59:48;;;;;;;10.68;10.38;;;20.30;99.90;;;;;;4968106;28;20238;-84
2022/06/08 08:02:18;;;;;;;10.60;10.30;;;20.40;99.90;;;;;;4968392;28;20242;-84
2022/06/08 08:04:47;;;;;;;10.57;10.27;;;20.50;99.90;;;;;;4968012;28;20253;-83
2022/06/08 08:07:25;;;;;;;10.20;9.90;;;20.70;99.90;;;;;;4968525;28;20257;-84
2022/06/08 08:09:55;;;;;;;10.40;10.10;;;20.70;99.90;;;;;;4968419;28;20244;-84
2022/06/08 08:12:24;;;;;;;10.48;10.18;;;20.60;99.90;;;;;;4968277;28;20324;-84
2022/06/08 08:14:53;;;;;;;10.13;9.82;;;20.60;99.90;;;;;;4970263;28;20274;-84
2022/06/08 08:17:22;;;;;;;10.23;9.93;;;20.70;99.90;;;;;;4972197;28;20230;-83
2022/06/08 08:19:52;;;;;;;10.07;9.77;;;20.80;99.90;;;;;;4971415;28;20230;-84
2022/06/08 08:22:33;;;;;;;10.20;9.90;;;20.90;99.90;;;;;;4970880;28;20260;-83
2022/06/08 08:25:01;;;;;;;10.48;10.18;;;21.00;99.90;;;;;;4969637;28;20242;-85
2022/06/08 08:27:29;;;;;;;10.02;9.73;;;21.20;99.90;;;;;;4968320;28;20277;-85
2022/06/08 08:29:58;;;;;;;10.32;10.02;;;21.40;99.90;;;;;;4967813;28;20290;-85
2022/06/08 08:32:28;;;;;;;10.18;9.88;;;21.40;99.90;;;;;;4968282;28;21080;-85
2022/06/08 08:35:00;;;;;;;10.13;9.82;;;21.50;99.90;;;;;;4967589;28;20303;-85
2022/06/08 08:37:31;;;;;;;10.10;9.80;;;21.70;99.90;;;;;;4969024;28;20234;-85
2022/06/08 08:39:59;;;;;;;9.90;9.60;;;21.80;99.90;;;;;;4971148;28;20245;-85
2022/06/08 08:42:28;;;;;;;10.10;9.80;;;21.80;99.90;;;;;;4971038;28;20245;-85
2022/06/08 08:45:00;;;;;;;10.18;9.88;;;21.80;99.90;;;;;;4971046;28;20242;-85
2022/06/08 08:47:45;;;;;;;9.90;9.60;;;21.70;99.90;;;;;;4971449;28;20258;-85
2022/06/08 08:50:23;;;;;;;9.90;9.60;;;21.60;99.90;;;;;;4970501;28;20242;-85
2022/06/08 08:53:03;;;;;;;10.07;9.77;;;21.60;99.90;;;;;;4971041;28;20226;-82
2022/06/08 08:55:39;;;;;;;10.00;9.70;;;21.60;99.90;;;;;;4971478;28;20265;-85
2022/06/08 08:58:17;;;;;;;9.95;9.65;;;21.60;99.90;;;;;;4972768;28;20234;-84
2022/06/08 09:00:55;;;;;;;9.98;9.68;;;21.60;99.90;;;;;;4971637;28;20253;-83
2022/06/08 09:03:33;;;;;;;9.98;9.68;;;21.70;99.90;;;;;;4970835;28;20344;-84
2022/06/08 09:06:12;;;;;;;9.93;9.63;;;21.90;99.90;;;;;;4970826;28;20232;-83
2022/06/08 09:08:50;;;;;;;10.27;9.98;;;22.10;99.90;;;;;;4971206;28;20241;-84
2022/06/08 09:11:23;;;;;;;10.10;9.80;;;22.20;99.90;;;;;;4970663;28;20245;-84
2022/06/08 09:13:58;;;;;;;9.75;9.45;;;22.30;99.90;;;;;;4971155;28;20222;-82
2022/06/08 09:16:37;;;;;;;9.95;9.65;;;22.40;99.90;;;;;;4974446;28;20281;-83
2022/06/08 09:19:32;;;;;;;9.82;9.52;;;22.50;99.90;;;;;;4979891;28;20245;-84
2022/06/08 09:22:27;;;;;;;9.80;9.50;;;22.60;99.90;;;;;;4975825;28;20245;-83
2022/06/08 09:25:23;;;;;;;10.00;9.70;;;22.70;99.90;;;;;;4974089;28;20238;-83
2022/06/08 09:27:55;;;;;;;10.10;9.80;;;22.90;99.90;;;;;;4968915;28;20238;-84
2022/06/08 09:30:26;;;;;;;9.98;9.68;;;23.00;99.90;;;;;;4968842;28;20317;-83
2022/06/08 09:33:01;;;;;;;9.80;9.50;;;23.20;99.90;;;;;;4968211;28;20266;-83
2022/06/08 09:38:17;;;;;;;10.52;10.23;;;23.10;99.90;;;;;;4967033;28;20226;-84
2022/06/08 09:41:05;;;;;;;10.48;10.18;;;23.00;99.90;;;;;;4968028;28;20262;-83
2022/06/08 09:44:09;;;;;;;10.90;10.60;;;23.00;99.90;;;;;;4966882;28;20272;-83
2022/06/08 09:52:49;;;;;;;10.23;9.93;;;23.20;99.90;;;;;;4967245;28;20265;-84
2022/06/08 09:55:34;;;;;;;10.20;9.90;;;23.20;99.90;;;;;;4966115;28;20274;-85
2022/06/08 09:58:21;;;;;;;9.80;9.50;;;23.60;99.90;;;;;;4966441;28;20282;-83
2022/06/08 10:04:04;;;;;;;9.85;9.55;;;24.50;99.90;;;;;;4967753;28;20233;-84
2022/06/08 10:06:42;;;;;;;10.55;10.25;;;24.80;99.90;;;;;;4968918;28;20226;-84
2022/06/08 10:12:25;;;;;;;10.10;9.80;;;24.70;99.90;;;;;;4967626;28;20245;-84
2022/06/08 10:15:04;;;;;;;10.60;10.30;;;24.40;99.90;;;;;;4973608;28;20280;-84
2022/06/08 10:17:41;;;;;;;10.10;9.80;;;24.30;99.90;;;;;;4973371;28;20222;-84
2022/06/08 10:20:22;;;;;;;10.10;9.80;;;24.40;99.90;;;;;;4971524;28;20229;-85
2022/06/08 10:23:00;;;;;;;10.48;10.18;;;24.90;99.90;;;;;;4969832;28;20244;-83
2022/06/08 10:25:38;;;;;;;9.90;9.60;;;25.00;99.90;;;;;;4969371;28;20230;-86
2022/06/08 10:28:15;;;;;;;9.60;9.30;;;25.10;99.90;;;;;;4968980;28;20238;-85
2022/06/08 10:30:56;;;;;;;10.00;9.70;;;24.80;99.90;;;;;;4968821;28;20245;-85
2022/06/08 10:33:34;;;;;;;9.70;9.40;;;24.60;99.90;;;;;;4968346;28;20301;-84
2022/06/08 10:36:03;;;;;;;10.40;10.10;;;24.50;99.90;;;;;;4968362;28;20247;-85
2022/06/08 10:44:51;;;;;;;10.25;9.95;;;24.80;99.90;;;;;;4955295;28;20230;-84
2022/06/08 10:47:38;;;;;;;9.98;9.68;;;25.00;99.90;;;;;;4968733;28;20246;-84
2022/06/08 10:50:34;;;;;;;10.10;9.80;;;25.20;99.90;;;;;;4967345;28;20277;-84
2022/06/08 10:56:33;;;;;;;10.40;10.10;;;26.20;99.90;;;;;;4967815;28;20281;-85
2022/06/08 10:59:20;;;;;;;10.40;10.10;;;26.40;99.90;;;;;;4970122;28;20310;-85
2022/06/08 11:04:57;;;;;;;11.20;10.90;;;26.30;99.90;;;;;;4962123;28;20290;-82
2022/06/08 11:07:27;;;;;;;10.70;10.40;;;26.20;99.90;;;;;;4966925;28;20242;-80
2022/06/08 11:10:14;;;;;;;10.82;10.52;;;26.50;99.90;;;;;;4964304;28;20262;-81
2022/06/08 11:13:15;;;;;;;10.93;10.63;;;26.70;99.90;;;;;;4955600;28;20262;-81
2022/06/08 11:15:56;;;;;;;10.90;10.60;;;26.50;99.90;;;;;;4943501;29;20226;-81
2022/06/08 11:18:32;;;;;;;10.77;10.48;;;26.20;99.90;;;;;;4944767;29;20334;-81
2022/06/08 11:21:29;;;;;;;10.88;10.57;;;25.50;99.90;;;;;;4954142;28;20297;-82
2022/06/08 11:24:05;;;;;;;11.02;10.73;;;25.00;99.90;;;;;;4958546;29;20246;-82
2022/06/08 11:27:14;;;;;;;11.00;10.70;;;24.50;99.90;;;;;;4959027;29;20253;-82
2022/06/08 11:29:51;;;;;;;10.63;10.32;;;24.60;99.90;;;;;;4947967;29;20245;-82
2022/06/08 11:32:42;;;;;;;10.80;10.50;;;25.00;99.90;;;;;;4945116;28;20242;-82
2022/06/08 11:35:43;;;;;;;10.90;10.60;;;25.30;99.90;;;;;;4944847;29;20231;-82
2022/06/08 11:38:21;;;;;;;10.90;10.60;;;25.50;99.90;;;;;;4945200;28;20257;-81
2022/06/08 11:40:49;;;;;;;10.60;10.30;;;25.30;99.90;;;;;;4945360;29;20239;-81
2022/06/08 11:43:38;;;;;;;10.68;10.38;;;25.10;99.90;;;;;;4944313;28;20239;-81
2022/06/08 11:46:06;;;;;;;10.90;10.60;;;24.80;99.90;;;;;;4945076;28;20235;-81
2022/06/08 11:48:49;;;;;;;10.70;10.40;;;24.60;99.90;;;;;;4943470;29;20227;-81
2022/06/08 11:51:34;;;;;;;10.55;10.25;;;24.90;99.90;;;;;;4943337;29;20287;-82
2022/06/08 11:54:17;;;;;;;10.98;10.68;;;25.60;99.90;;;;;;4944593;29;20235;-81
2022/06/08 11:57:03;;;;;;;10.50;10.20;;;26.10;99.90;;;;;;4945225;28;20276;-81
2022/06/08 11:59:37;;;;;;;10.55;10.25;;;26.60;99.90;;;;;;4944584;29;20241;-81
2022/06/08 12:02:20;;;;;;;10.50;10.20;;;27.30;99.90;;;;;;4944133;28;20244;-82
2022/06/08 12:04:54;;;;;;;10.70;10.40;;;27.90;99.90;;;;;;4943584;29;20270;-82
2022/06/08 12:07:43;;;;;;;10.50;10.20;;;28.20;99.90;;;;;;4943439;29;20242;-81
2022/06/08 12:10:17;;;;;;;10.30;10.00;;;28.00;99.90;;;;;;4943595;29;20239;-82
2022/06/08 12:12:46;;;;;;;10.68;10.38;;;27.60;99.90;;;;;;4950659;29;20242;-81
2022/06/08 12:15:44;;;;;;;10.25;9.95;;;27.10;99.90;;;;;;4952567;28;20279;-81
2022/06/08 12:18:44;;;;;;;10.15;9.85;;;26.70;99.90;;;;;;4951616;29;20234;-82
2022/06/08 12:21:35;;;;;;;10.40;10.10;;;26.50;99.90;;;;;;4913871;29;20263;-82
2022/06/08 12:24:24;;;;;;;10.23;9.93;;;26.30;99.90;;;;;;4945129;29;20247;-82
2022/06/08 12:27:20;;;;;;;10.23;9.93;;;26.20;99.90;;;;;;4945566;29;20237;-80
2022/06/08 12:29:56;;;;;;;10.52;10.23;;;26.10;99.90;;;;;;4945075;29;20239;-81
2022/06/08 12:32:33;;;;;;;10.35;10.05;;;26.10;99.90;;;;;;4943979;28;20328;-80
2022/06/08 12:35:30;;;;;;;10.43;10.13;;;26.20;99.90;;;;;;4947350;28;20230;-80
2022/06/08 12:38:19;;;;;;;10.80;10.50;;;26.60;99.90;;;;;;4940514;29;21034;-80
2022/06/08 12:41:17;;;;;;;10.70;10.40;;;26.90;99.90;;;;;;4950704;29;20238;-80
2022/06/08 12:43:52;;;;;;;10.63;10.32;;;27.10;99.90;;;;;;4950612;28;20258;-80
2022/06/08 12:46:34;;;;;;;10.60;10.30;;;27.30;99.90;;;;;;4953535;29;20297;-80
2022/06/08 12:49:19;;;;;;;10.75;10.45;;;27.40;99.90;;;;;;4952605;28;20259;-80
2022/06/08 12:51:51;;;;;;;10.75;10.45;;;27.50;99.90;;;;;;4952447;28;20291;-80
2022/06/08 12:54:27;;;;;;;10.40;10.10;;;27.70;99.90;;;;;;4952059;29;20234;-80
2022/06/08 12:56:59;;;;;;;10.90;10.60;;;27.90;99.90;;;;;;4953015;29;20250;-80
2022/06/08 12:59:26;;;;;;;10.60;10.30;;;28.00;99.90;;;;;;4952629;29;20245;-80
2022/06/08 13:01:57;;;;;;;10.57;10.27;;;28.30;99.90;;;;;;4953226;29;20230;-80
2022/06/08 13:04:27;;;;;;;10.52;10.23;;;28.10;99.90;;;;;;4953794;29;20231;-80
2022/06/08 13:06:54;;;;;;;10.85;10.55;;;27.90;99.90;;;;;;4955666;28;20243;-80
2022/06/08 13:09:22;;;;;;;10.80;10.50;;;27.80;99.90;;;;;;4954689;28;20302;-80
2022/06/08 13:11:56;;;;;;;11.18;10.88;;;27.40;99.90;;;;;;4955136;28;20291;-80
2022/06/08 13:14:24;;;;;;;11.20;10.90;;;27.30;99.90;;;;;;4955845;29;20290;-81
2022/06/08 13:16:52;;;;;;;10.98;10.68;;;26.90;99.90;;;;;;4957288;29;20258;-81
2022/06/08 13:19:20;;;;;;;10.88;10.57;;;26.60;99.90;;;;;;4956635;29;20239;-81
2022/06/08 13:21:49;;;;;;;10.90;10.60;;;26.40;99.90;;;;;;4957869;29;20222;-81
2022/06/08 13:24:18;;;;;;;11.10;10.80;;;26.20;99.90;;;;;;4955949;28;20250;-80
2022/06/08 13:26:48;;;;;;;10.80;10.50;;;26.00;99.90;;;;;;4954066;28;20238;-80
2022/06/08 13:29:18;;;;;;;11.02;10.73;;;25.90;99.90;;;;;;4954309;29;20261;-80
2022/06/08 13:31:45;;;;;;;10.40;10.10;;;26.10;99.90;;;;;;4954245;28;20249;-79
2022/06/08 13:34:13;;;;;;;10.18;9.88;;;26.10;99.90;;;;;;4953647;29;20231;-80
2022/06/08 13:36:45;;;;;;;10.43;10.13;;;26.30;99.90;;;;;;4953696;29;20246;-80
2022/06/08 13:39:27;;;;;;;10.90;10.60;;;26.30;99.90;;;;;;4954570;29;20262;-80
2022/06/08 13:41:58;;;;;;;10.98;10.68;;;26.40;99.90;;;;;;4954406;29;20298;-80
2022/06/08 13:44:30;;;;;;;10.73;10.43;;;26.50;99.90;;;;;;4954970;28;20219;-81
2022/06/08 13:47:01;;;;;;;10.43;10.13;;;26.40;99.90;;;;;;4959192;29;20235;-81
2022/06/08 13:49:33;;;;;;;10.88;10.57;;;26.30;99.90;;;;;;4951213;29;20289;-81
2022/06/08 13:52:01;;;;;;;11.13;10.82;;;26.00;99.90;;;;;;4948676;29;20223;-81
2022/06/08 13:54:34;;;;;;;11.10;10.80;;;25.90;99.90;;;;;;4954453;29;20246;-80
2022/06/08 13:57:03;;;;;;;11.15;10.85;;;25.90;99.90;;;;;;4945504;29;20235;-81
2022/06/08 13:59:31;;;;;;;10.93;10.63;;;25.90;99.90;;;;;;4942777;29;20246;-81
2022/06/08 14:02:00;;;;;;;10.98;10.68;;;26.20;99.90;;;;;;4942939;29;20334;-80
2022/06/08 14:04:31;;;;;;;11.30;11.00;;;26.70;99.90;;;;;;4941920;29;20235;-80
2022/06/08 14:15:19;;;;;;;10.45;10.15;;;28.10;99.90;;;;;;4942018;29;20231;-81
2022/06/08 14:17:47;;;;;;;10.60;10.30;;;28.30;99.90;;;;;;4941323;29;20338;-81
2022/06/08 14:20:32;;;;;;;10.40;10.10;;;28.50;99.90;;;;;;4941030;28;20235;-80
2022/06/08 14:23:00;;;;;;;10.77;10.48;;;28.60;99.90;;;;;;4941673;29;20245;-81
2022/06/08 14:25:29;;;;;;;10.40;10.10;;;28.60;99.90;;;;;;4940662;28;20321;-81
2022/06/08 14:27:58;;;;;;;10.35;10.05;;;28.60;99.90;;;;;;4941935;28;20315;-81
2022/06/08 14:30:25;;;;;;;10.93;10.63;;;28.60;99.90;;;;;;4942092;29;20238;-81
2022/06/08 14:32:57;;;;;;;11.10;10.80;;;28.60;99.90;;;;;;4944518;28;20334;-80
2022/06/08 14:35:30;;;;;;;11.10;10.80;;;28.70;99.90;;;;;;4944942;29;20281;-81
2022/06/08 14:37:58;;;;;;;11.00;10.70;;;29.00;99.90;;;;;;4944552;29;20238;-81
2022/06/08 14:40:37;;;;;;;11.07;10.77;;;29.20;99.90;;;;;;4945272;28;20251;-81
2022/06/08 14:43:06;;;;;;;11.60;11.20;;;29.20;99.90;;;;;;4944785;28;20249;-80
2022/06/08 14:45:34;;;;;;;11.57;11.27;;;29.20;99.90;;;;;;4944614;29;20237;-80
2022/06/08 14:48:02;;;;;;;11.35;11.05;;;29.20;99.90;;;;;;4944600;28;20235;-80
2022/06/08 14:50:33;;;;;;;11.57;11.18;;;28.60;99.90;;;;;;4944670;29;20249;-80
2022/06/08 14:53:02;;;;;;;11.18;10.88;;;28.00;99.90;;;;;;4945181;28;20243;-81
2022/06/08 14:58:19;;;;;;;11.05;10.75;;;26.70;99.90;;;;;;4944725;29;20735;-80
2022/06/08 15:00:47;;;;;;;10.98;10.68;;;26.10;99.90;;;;;;4944444;29;20251;-80
2022/06/08 15:03:23;;;;;;;11.02;10.73;;;25.90;99.90;;;;;;4943004;29;20248;-81
2022/06/08 15:05:52;;;;;;;10.80;10.50;;;25.80;99.90;;;;;;4944293;28;20345;-80
2022/06/08 15:08:20;;;;;;;10.93;10.63;;;25.80;99.90;;;;;;4944247;29;20235;-80
2022/06/08 15:13:40;;;;;;;11.00;10.70;;;25.60;99.90;;;;;;4943511;28;20302;-80
2022/06/08 15:16:07;;;;;;;10.48;10.18;;;25.50;99.90;;;;;;4943928;28;20447;-80
2022/06/08 15:18:35;;;;;;;10.60;10.30;;;25.50;99.90;;;;;;4944068;28;20266;-80
2022/06/08 15:21:04;;;;;;;10.80;10.50;;;25.60;99.90;;;;;;4944054;29;20238;-80
2022/06/08 15:23:31;;;;;;;10.52;10.23;;;25.60;99.90;;;;;;4943290;28;20281;-80
2022/06/08 15:26:05;;;;;;;10.60;10.30;;;25.70;99.90;;;;;;4943289;29;20263;-80
2022/06/08 15:28:37;;;;;;;10.35;10.05;;;25.80;99.90;;;;;;4943309;29;20364;-81
2022/06/08 15:31:05;;;;;;;10.95;10.65;;;25.80;99.90;;;;;;4943472;29;20242;-80
2022/06/08 15:33:33;;;;;;;10.93;10.63;;;25.80;99.90;;;;;;4942887;28;20243;-80
2022/06/08 15:36:08;;;;;;;11.00;10.70;;;25.90;99.90;;;;;;4942415;28;20555;-80
2022/06/08 15:38:48;;;;;;;10.90;10.60;;;25.90;99.90;;;;;;4945003;29;20248;-80
2022/06/08 15:41:17;;;;;;;10.48;10.18;;;26.10;99.90;;;;;;4943705;28;20245;-81
2022/06/08 15:43:46;;;;;;;10.43;10.13;;;26.10;99.90;;;;;;4944028;28;20326;-80
2022/06/08 15:46:14;;;;;;;10.45;10.15;;;26.00;99.90;;;;;;4942301;29;20290;-80
2022/06/08 15:48:43;;;;;;;10.52;10.23;;;25.90;99.90;;;;;;4943224;29;20325;-80
2022/06/08 15:51:16;;;;;;;10.60;10.30;;;25.60;99.90;;;;;;4943100;28;20295;-80
2022/06/08 15:53:49;;;;;;;10.80;10.50;;;25.20;99.90;;;;;;4942600;29;20275;-81